createdAt,value
2022-09-06T00:01:17.141Z,39.74
2022-09-06T00:03:45.628Z,39.79
2022-09-06T00:06:19.163Z,40.16
2022-09-06T00:08:48.003Z,40.27
2022-09-06T00:11:17.052Z,40.78
2022-09-06T00:13:44.538Z,40.89
2022-09-06T00:16:29.714Z,41.30
2022-09-06T00:18:57.931Z,41.79
2022-09-06T00:21:27.699Z,42.83
2022-09-06T00:23:55.625Z,42.94
2022-09-06T00:26:23.489Z,43.26
2022-09-06T00:28:50.802Z,43.45
2022-09-06T00:31:21.130Z,43.49
2022-09-06T00:33:48.495Z,43.86
2022-09-06T00:36:16.023Z,44.13
2022-09-06T00:38:43.449Z,44.37
2022-09-06T00:41:13.550Z,44.71
2022-09-06T00:43:42.269Z,44.97
2022-09-06T00:46:14.570Z,45.23
2022-09-06T00:48:43.414Z,45.85
2022-09-06T00:51:13.319Z,46.63
2022-09-06T00:53:40.630Z,46.80
2022-09-06T00:56:08.135Z,46.85
2022-09-06T00:58:35.957Z,47.27
2022-09-06T01:01:03.312Z,47.82
2022-09-06T01:03:30.541Z,47.91
2022-09-06T01:06:04.049Z,48.52
2022-09-06T01:08:49.587Z,47.95
2022-09-06T01:11:25.823Z,47.80
2022-09-06T01:14:27.250Z,48.18
2022-09-06T01:17:26.140Z,48.66
2022-09-06T01:20:24.868Z,48.86
2022-09-06T01:23:16.532Z,48.69
2022-09-06T01:26:28.069Z,49.44
2022-09-06T01:28:55.876Z,49.48
2022-09-06T01:31:26.196Z,50.19
2022-09-06T01:34:08.699Z,50.14
2022-09-06T01:36:59.986Z,50.75
2022-09-06T01:39:33.865Z,51.23
2022-09-06T01:42:10.430Z,51.47
2022-09-06T01:44:39.696Z,51.53
2022-09-06T01:47:22.501Z,52.15
2022-09-06T01:50:20.886Z,52.27
2022-09-06T01:53:22.504Z,52.84
2022-09-06T01:56:16.057Z,52.99
2022-09-06T01:59:16.287Z,53.30
2022-09-06T02:01:46.660Z,52.42
2022-09-06T02:04:36.984Z,53.22
2022-09-06T02:07:14.374Z,53.29
2022-09-06T02:09:47.161Z,53.53
2022-09-06T02:12:17.841Z,53.66
2022-09-06T02:15:07.357Z,54.00
2022-09-06T02:17:40.175Z,54.10
2022-09-06T02:20:12.926Z,54.12
2022-09-06T02:22:44.221Z,54.31
2022-09-06T02:25:19.256Z,54.90
2022-09-06T02:27:46.798Z,54.30
2022-09-06T02:30:14.365Z,54.66
2022-09-06T02:32:50.715Z,54.88
2022-09-06T02:35:18.272Z,55.21
2022-09-06T02:37:45.681Z,55.00
2022-09-06T02:40:13.213Z,55.29
2022-09-06T02:42:42.054Z,55.77
2022-09-06T02:45:09.671Z,55.59
2022-09-06T02:47:36.976Z,55.33
2022-09-06T02:50:04.453Z,55.38
2022-09-06T02:52:31.919Z,55.47
2022-09-06T02:54:59.023Z,55.11
2022-09-06T02:57:26.314Z,55.60
2022-09-06T02:59:53.592Z,55.50
2022-09-06T03:02:20.796Z,56.09
2022-09-06T03:04:48.060Z,56.10
2022-09-06T03:07:15.263Z,55.76
2022-09-06T03:09:42.644Z,55.68
2022-09-06T03:12:10.016Z,55.40
2022-09-06T03:14:37.695Z,55.79
2022-09-06T03:17:05.335Z,56.34
2022-09-06T03:19:32.823Z,57.04
2022-09-06T03:22:00.122Z,57.23
2022-09-06T03:24:27.335Z,56.87
2022-09-06T03:26:54.839Z,57.10
2022-09-06T03:29:22.181Z,57.43
2022-09-06T03:31:49.586Z,57.82
2022-09-06T03:34:16.810Z,57.47
2022-09-06T03:36:44.206Z,57.44
2022-09-06T03:39:11.367Z,57.66
2022-09-06T03:41:38.534Z,57.51
2022-09-06T03:44:05.809Z,57.61
2022-09-06T03:46:33.085Z,57.35
2022-09-06T03:49:02.075Z,57.58
2022-09-06T03:51:29.409Z,57.46
2022-09-06T03:53:57.889Z,57.26
2022-09-06T03:56:25.037Z,57.00
2022-09-06T03:58:52.236Z,57.50
2022-09-06T04:01:20.282Z,57.29
2022-09-06T04:03:47.574Z,57.20
2022-09-06T04:06:14.970Z,57.16
2022-09-06T04:08:42.354Z,56.86
2022-09-06T04:11:09.688Z,57.32
2022-09-06T04:13:37.097Z,56.85
2022-09-06T04:16:05.628Z,57.00
2022-09-06T04:18:33.121Z,56.57
2022-09-06T04:21:00.450Z,57.06
2022-09-06T04:23:29.149Z,56.89
2022-09-06T04:25:58.339Z,57.50
2022-09-06T04:28:27.012Z,57.46
2022-09-06T04:31:04.638Z,58.06
2022-09-06T04:33:34.988Z,57.45
2022-09-06T04:36:04.686Z,57.72
2022-09-06T04:38:36.054Z,58.00
2022-09-06T04:41:04.489Z,57.96
2022-09-06T04:43:31.925Z,57.69
2022-09-06T04:46:06.848Z,57.73
2022-09-06T04:48:35.403Z,56.58
2022-09-06T04:51:02.930Z,56.65
2022-09-06T04:53:30.079Z,56.72
2022-09-06T04:55:58.267Z,56.12
2022-09-06T04:58:26.277Z,55.44
2022-09-06T05:00:53.977Z,55.50
2022-09-06T05:03:21.252Z,55.44
2022-09-06T05:05:48.636Z,55.34
2022-09-06T05:08:16.240Z,55.22
2022-09-06T05:10:43.511Z,55.09
2022-09-06T05:13:10.628Z,56.04
2022-09-06T05:15:38.513Z,54.99
2022-09-06T05:18:06.933Z,54.53
2022-09-06T05:20:34.347Z,54.33
2022-09-06T05:23:01.953Z,53.94
2022-09-06T05:25:29.249Z,53.48
2022-09-06T05:27:56.493Z,52.99
2022-09-06T05:30:23.696Z,52.88
2022-09-06T05:32:51.468Z,52.52
2022-09-06T05:35:18.737Z,52.22
2022-09-06T05:37:45.922Z,51.78
2022-09-06T05:40:13.103Z,51.88
2022-09-06T05:42:41.220Z,50.65
2022-09-06T05:45:08.867Z,51.03
2022-09-06T05:47:36.083Z,50.27
2022-09-06T05:50:03.672Z,50.14
2022-09-06T05:52:31.598Z,49.71
2022-09-06T05:55:02.581Z,49.20
2022-09-06T05:57:31.770Z,48.79
2022-09-06T05:59:59.469Z,47.87
2022-09-06T06:02:26.777Z,47.00
2022-09-06T06:04:54.766Z,46.41
2022-09-06T06:07:22.222Z,46.85
2022-09-06T06:09:49.679Z,47.12
2022-09-06T06:12:17.897Z,47.31
2022-09-06T06:14:45.224Z,46.70
2022-09-06T06:17:12.424Z,46.72
2022-09-06T06:19:40.352Z,46.83
2022-09-06T06:22:07.634Z,46.15
2022-09-06T06:24:35.341Z,45.30
2022-09-06T06:27:02.743Z,45.74
2022-09-06T06:29:30.291Z,45.69
2022-09-06T06:31:57.657Z,45.90
2022-09-06T06:34:24.899Z,45.71
2022-09-06T06:36:52.392Z,45.23
2022-09-06T06:39:19.636Z,44.54
2022-09-06T06:41:48.431Z,44.65
2022-09-06T06:44:34.616Z,44.46
2022-09-06T06:47:02.852Z,45.07
2022-09-06T06:49:30.341Z,44.76
2022-09-06T06:51:57.834Z,44.28
2022-09-06T06:54:25.138Z,44.26
2022-09-06T06:56:52.350Z,44.07
2022-09-06T06:59:20.969Z,43.65
2022-09-06T07:01:50.891Z,43.65
2022-09-06T07:04:18.238Z,44.14
2022-09-06T07:12:30.853Z,44.11
2022-09-06T07:14:58.151Z,43.65
2022-09-06T07:17:25.333Z,43.04
2022-09-06T07:22:40.950Z,41.72
2022-09-06T07:25:10.442Z,42.14
2022-09-06T07:27:52.850Z,42.19
2022-09-06T07:30:20.555Z,42.23
2022-09-06T07:32:48.376Z,41.76
2022-09-06T07:35:15.739Z,41.09
2022-09-06T07:37:43.039Z,40.63
2022-09-06T07:40:10.841Z,39.82
2022-09-06T07:42:38.313Z,39.09
2022-09-06T07:45:06.467Z,39.23
2022-09-06T07:53:14.990Z,38.27
2022-09-06T07:55:45.416Z,38.57
2022-09-06T07:58:12.665Z,37.82
2022-09-06T08:00:41.634Z,37.74
2022-09-06T08:03:09.857Z,37.19
2022-09-06T08:11:14.202Z,37.69
2022-09-06T08:13:42.501Z,37.81
2022-09-06T08:16:12.062Z,37.15
2022-09-06T08:18:39.804Z,36.74
2022-09-06T08:21:12.441Z,36.56
2022-09-06T08:23:44.989Z,36.14
2022-09-06T08:26:13.084Z,36.39
2022-09-06T08:28:40.573Z,36.15
2022-09-06T08:31:13.507Z,35.89
2022-09-06T08:33:41.690Z,36.15
2022-09-06T08:36:11.247Z,35.80
2022-09-06T08:38:40.098Z,35.26
2022-09-06T08:41:28.054Z,34.59
2022-09-06T08:47:01.361Z,34.40
2022-09-06T08:49:36.925Z,34.01
2022-09-06T08:52:30.191Z,33.85
2022-09-06T08:55:03.376Z,34.53
2022-09-06T08:58:08.066Z,33.27
2022-09-06T09:00:38.075Z,33.49
2022-09-06T09:03:16.526Z,33.52
2022-09-06T09:05:49.779Z,33.89
2022-09-06T09:08:37.164Z,32.87
2022-09-06T09:11:07.776Z,32.42
2022-09-06T09:14:04.502Z,31.31
2022-09-06T09:16:32.410Z,31.88
2022-09-06T09:19:03.743Z,32.51
2022-09-06T09:21:38.416Z,33.00
2022-09-06T09:24:08.630Z,33.07
2022-09-06T09:26:51.302Z,33.11
2022-09-06T09:29:20.863Z,32.99
2022-09-06T09:31:54.453Z,32.49
2022-09-06T09:34:39.965Z,32.88
2022-09-06T09:40:27.269Z,32.53
2022-09-06T09:43:09.287Z,31.70
2022-09-06T09:45:36.450Z,32.07
2022-09-06T09:48:25.390Z,31.86
2022-09-06T09:50:53.313Z,32.30
2022-09-06T09:53:22.506Z,31.91
2022-09-06T09:55:57.973Z,31.55
2022-09-06T09:58:35.986Z,31.95
2022-09-06T10:01:20.581Z,32.02
2022-09-06T10:09:33.856Z,32.21
2022-09-06T10:12:01.899Z,32.09
2022-09-06T10:14:33.269Z,32.04
2022-09-06T10:17:01.253Z,32.26
2022-09-06T10:19:43.013Z,32.51
2022-09-06T10:22:22.561Z,32.46
2022-09-06T10:25:11.966Z,32.62
2022-09-06T10:28:08.157Z,32.27
2022-09-06T10:31:00.798Z,31.91
2022-09-06T10:33:41.649Z,32.26
2022-09-06T10:36:09.219Z,32.40
2022-09-06T10:39:03.890Z,32.15
2022-09-06T10:41:42.745Z,32.18
2022-09-06T10:44:39.333Z,32.44
2022-09-06T10:47:13.648Z,32.30
2022-09-06T10:49:54.607Z,32.16
2022-09-06T10:52:43.856Z,32.94
2022-09-06T10:55:17.118Z,33.84
2022-09-06T11:00:47.550Z,34.30
2022-09-06T11:03:57.000Z,34.42
2022-09-06T11:06:33.309Z,34.41
2022-09-06T11:09:17.205Z,33.84
2022-09-06T11:12:09.536Z,34.36
2022-09-06T11:14:38.223Z,34.46
2022-09-06T11:17:19.105Z,34.63
2022-09-06T11:19:53.757Z,34.51
2022-09-06T11:22:45.067Z,34.28
2022-09-06T11:25:46.907Z,34.32
2022-09-06T11:28:19.548Z,33.63
2022-09-06T11:30:50.616Z,33.58
2022-09-06T11:33:30.647Z,33.04
2022-09-06T11:36:18.762Z,33.15
2022-09-06T11:39:00.723Z,33.03
2022-09-06T11:41:32.931Z,33.26
2022-09-06T11:44:00.887Z,33.67
2022-09-06T11:46:34.375Z,33.90
2022-09-06T11:49:32.081Z,33.39
2022-09-06T11:51:59.793Z,33.84
2022-09-06T11:54:51.466Z,33.75
2022-09-06T11:57:23.317Z,34.10
2022-09-06T12:00:02.016Z,34.21
2022-09-06T12:02:38.136Z,33.59
2022-09-06T12:05:07.699Z,33.56
2022-09-06T12:07:58.780Z,33.76
2022-09-06T12:10:32.341Z,33.71
2022-09-06T12:13:00.232Z,33.77
2022-09-06T12:15:30.369Z,33.87
2022-09-06T12:17:59.723Z,34.00
2022-09-06T12:20:48.457Z,33.70
2022-09-06T12:23:37.449Z,33.78
2022-09-06T12:26:09.412Z,34.42
2022-09-06T12:28:55.472Z,34.69
2022-09-06T12:31:38.768Z,34.31
2022-09-06T12:34:21.754Z,34.19
2022-09-06T12:36:56.478Z,34.00
2022-09-06T12:39:24.628Z,33.52
2022-09-06T12:42:01.243Z,33.00
2022-09-06T12:44:50.160Z,33.28
2022-09-06T12:47:20.581Z,34.11
2022-09-06T12:49:48.071Z,34.50
2022-09-06T12:52:19.635Z,34.65
2022-09-06T12:54:49.897Z,34.58
2022-09-06T12:57:23.274Z,34.59
2022-09-06T12:59:56.595Z,34.80
2022-09-06T13:02:44.004Z,34.64
2022-09-06T13:05:13.412Z,34.88
2022-09-06T13:07:45.913Z,34.90
2022-09-06T13:10:17.977Z,34.77
2022-09-06T13:12:49.238Z,34.58
2022-09-06T13:15:25.605Z,34.45
2022-09-06T13:17:54.745Z,34.51
2022-09-06T13:20:24.994Z,34.49
2022-09-06T13:22:52.660Z,34.32
2022-09-06T13:25:20.893Z,34.37
2022-09-06T13:27:51.360Z,34.53
2022-09-06T13:30:49.522Z,34.23
2022-09-06T13:33:26.808Z,34.13
2022-09-06T13:36:12.267Z,34.06
2022-09-06T13:38:42.773Z,33.65
2022-09-06T13:41:25.248Z,33.75
2022-09-06T13:44:08.062Z,33.69
2022-09-06T13:46:39.310Z,33.70
2022-09-06T13:49:06.616Z,33.47
2022-09-06T13:51:34.640Z,33.57
2022-09-06T13:54:14.286Z,33.21
2022-09-06T13:56:45.106Z,33.28
2022-09-06T13:59:12.969Z,33.08
2022-09-06T14:01:43.052Z,32.94
2022-09-06T14:04:15.749Z,32.67
2022-09-06T14:06:43.114Z,32.17
2022-09-06T14:09:10.543Z,31.95
2022-09-06T14:11:39.058Z,32.40
2022-09-06T14:14:06.366Z,32.24
2022-09-06T14:16:34.603Z,31.96
2022-09-06T14:19:04.016Z,31.94
2022-09-06T14:21:33.182Z,31.94
2022-09-06T14:24:04.174Z,32.12
2022-09-06T14:26:33.468Z,32.25
2022-09-06T14:29:00.825Z,32.44
2022-09-06T14:31:29.635Z,33.20
2022-09-06T14:33:57.520Z,33.49
2022-09-06T14:36:27.156Z,33.74
2022-09-06T14:38:55.094Z,34.22
2022-09-06T14:41:22.384Z,34.28
2022-09-06T14:43:52.348Z,34.20
2022-09-06T14:46:22.231Z,34.48
2022-09-06T14:49:04.433Z,34.53
2022-09-06T14:51:32.178Z,34.38
2022-09-06T14:54:04.558Z,34.42
2022-09-06T14:56:32.044Z,34.78
2022-09-06T14:59:00.188Z,34.59
2022-09-06T15:01:33.052Z,34.51
2022-09-06T15:04:05.636Z,34.75
2022-09-06T15:06:37.264Z,34.70
2022-09-06T15:09:05.784Z,34.63
2022-09-06T15:11:34.796Z,34.55
2022-09-06T15:14:04.162Z,34.79
2022-09-06T15:16:33.617Z,34.44
2022-09-06T15:19:03.292Z,34.42
2022-09-06T15:21:31.457Z,34.51
2022-09-06T15:24:00.471Z,34.35
2022-09-06T15:26:27.861Z,34.04
2022-09-06T15:28:55.213Z,33.72
2022-09-06T15:31:23.181Z,33.72
2022-09-06T15:33:52.043Z,33.69
2022-09-06T15:36:20.157Z,33.80
2022-09-06T15:38:49.868Z,33.71
2022-09-06T15:41:25.516Z,33.66
2022-09-06T15:44:00.003Z,33.58
2022-09-06T15:46:41.530Z,33.51
2022-09-06T15:49:11.411Z,33.65
2022-09-06T15:51:40.499Z,34.02
2022-09-06T15:54:08.315Z,33.71
2022-09-06T15:56:36.691Z,33.76
2022-09-06T15:59:05.529Z,33.96
2022-09-06T16:01:36.699Z,33.88
2022-09-06T16:04:06.980Z,34.00
2022-09-06T16:06:42.745Z,33.95
2022-09-06T16:09:14.805Z,33.87
2022-09-06T16:11:42.419Z,34.27
2022-09-06T16:14:12.364Z,34.31
2022-09-06T16:16:40.655Z,34.28
2022-09-06T16:19:08.506Z,34.27
2022-09-06T16:21:38.416Z,34.48
2022-09-06T16:24:08.547Z,34.42
2022-09-06T16:26:44.101Z,34.30
2022-09-06T16:29:13.154Z,34.42
2022-09-06T16:31:41.541Z,34.66
2022-09-06T16:34:10.051Z,35.11
2022-09-06T16:36:37.597Z,35.11
2022-09-06T16:39:05.841Z,35.21
2022-09-06T16:41:45.090Z,35.59
2022-09-06T16:44:17.059Z,35.99
2022-09-06T16:46:47.140Z,36.26
2022-09-06T16:49:17.205Z,36.26
2022-09-06T16:51:45.903Z,36.67
2022-09-06T16:54:14.177Z,36.92
2022-09-06T16:56:41.900Z,37.06
2022-09-06T16:59:11.032Z,37.10
2022-09-06T17:01:41.772Z,37.13
2022-09-06T17:04:10.182Z,37.02
2022-09-06T17:06:44.498Z,37.15
2022-09-06T17:09:14.310Z,37.14
2022-09-06T17:11:41.699Z,37.02
2022-09-06T17:14:09.520Z,37.16
2022-09-06T17:16:55.644Z,37.42
2022-09-06T17:19:23.186Z,37.53
2022-09-06T17:21:50.693Z,37.36
2022-09-06T17:24:17.950Z,37.88
2022-09-06T17:26:45.257Z,37.90
2022-09-06T17:29:12.900Z,37.84
2022-09-06T17:31:40.817Z,37.95
2022-09-06T17:34:08.185Z,38.22
2022-09-06T17:36:36.611Z,38.37
2022-09-06T17:39:09.089Z,38.01
2022-09-06T17:41:50.196Z,38.12
2022-09-06T17:44:19.523Z,38.55
2022-09-06T17:47:08.988Z,38.48
2022-09-06T17:49:35.579Z,38.56
2022-09-06T17:52:03.098Z,38.65
2022-09-06T17:54:31.931Z,38.71
2022-09-06T17:56:59.609Z,38.65
2022-09-06T17:59:28.620Z,38.76
2022-09-06T18:01:59.103Z,38.78
2022-09-06T18:04:26.409Z,39.06
2022-09-06T18:06:54.077Z,38.85
2022-09-06T18:09:21.688Z,38.80
2022-09-06T18:11:49.298Z,38.78
2022-09-06T18:14:21.075Z,39.07
2022-09-06T18:16:51.124Z,38.98
2022-09-06T18:19:19.221Z,38.73
2022-09-06T18:21:47.534Z,38.66
2022-09-06T18:24:15.100Z,38.79
2022-09-06T18:26:43.271Z,38.81
2022-09-06T18:29:13.673Z,38.89
2022-09-06T18:31:41.678Z,39.00
2022-09-06T18:34:10.748Z,39.18
2022-09-06T18:36:39.305Z,39.04
2022-09-06T18:39:07.019Z,38.99
2022-09-06T18:41:53.910Z,39.20
2022-09-06T18:44:21.812Z,39.00
2022-09-06T18:46:49.471Z,39.17
2022-09-06T18:49:17.607Z,39.25
2022-09-06T18:51:45.732Z,39.22
2022-09-06T18:54:13.841Z,39.45
2022-09-06T18:56:42.829Z,39.47
2022-09-06T18:59:13.921Z,39.55
2022-09-06T19:01:42.954Z,39.44
2022-09-06T19:04:11.658Z,39.68
2022-09-06T19:06:41.185Z,39.94
2022-09-06T19:09:11.950Z,39.89
2022-09-06T19:11:41.972Z,39.81
2022-09-06T19:14:09.828Z,39.95
2022-09-06T19:16:37.100Z,40.15
2022-09-06T19:19:06.782Z,40.27
2022-09-06T19:21:39.347Z,40.06
2022-09-06T19:24:10.474Z,40.24
2022-09-06T19:26:40.784Z,40.73
2022-09-06T19:29:13.286Z,40.93
2022-09-06T19:31:41.586Z,40.66
2022-09-06T19:34:08.944Z,40.69
2022-09-06T19:36:36.552Z,41.27
2022-09-06T19:39:06.964Z,41.19
2022-09-06T19:41:38.030Z,41.04
2022-09-06T19:44:07.896Z,41.07
2022-09-06T19:46:35.548Z,41.29
2022-09-06T19:49:03.841Z,41.60
2022-09-06T19:51:31.773Z,41.61
2022-09-06T19:54:00.123Z,41.81
2022-09-06T19:56:33.831Z,41.73
2022-09-06T19:59:04.428Z,42.11
2022-09-06T20:01:33.664Z,41.77
2022-09-06T20:04:03.557Z,42.38
2022-09-06T20:06:31.658Z,42.20
2022-09-06T20:09:00.158Z,42.35
2022-09-06T20:11:30.120Z,42.20
2022-09-06T20:13:57.855Z,42.36
2022-09-06T20:16:25.915Z,42.33
2022-09-06T20:18:59.196Z,42.58
2022-09-06T20:21:30.007Z,42.65
2022-09-06T20:23:59.442Z,42.65
2022-09-06T20:26:29.247Z,43.07
2022-09-06T20:28:58.709Z,43.04
2022-09-06T20:31:29.232Z,43.48
2022-09-06T20:33:58.494Z,43.77
2022-09-06T20:36:26.020Z,44.22
2022-09-06T20:38:53.547Z,44.21
2022-09-06T20:41:23.912Z,44.71
2022-09-06T20:43:56.854Z,44.67
2022-09-06T20:46:26.501Z,44.69
2022-09-06T20:48:56.939Z,45.26
2022-09-06T20:51:25.507Z,45.07
2022-09-06T20:53:55.545Z,45.16
2022-09-06T20:56:25.750Z,45.36
2022-09-06T20:59:00.944Z,45.48
2022-09-06T21:01:31.468Z,45.43
2022-09-06T21:04:00.679Z,45.57
2022-09-06T21:06:31.027Z,45.15
2022-09-06T21:08:58.393Z,45.56
2022-09-06T21:11:25.839Z,45.10
2022-09-06T21:13:56.219Z,45.01
2022-09-06T21:16:26.110Z,45.36
2022-09-06T21:18:55.527Z,45.30
2022-09-06T21:21:23.928Z,45.04
2022-09-06T21:23:51.294Z,45.47
2022-09-06T21:26:19.270Z,45.21
2022-09-06T21:28:47.900Z,45.56
2022-09-06T21:31:27.013Z,45.74
2022-09-06T21:33:57.009Z,46.52
2022-09-06T21:36:32.042Z,46.14
2022-09-06T21:39:00.480Z,45.91
2022-09-06T21:41:28.951Z,46.07
2022-09-06T21:43:58.640Z,46.14
2022-09-06T21:46:34.997Z,46.13
2022-09-06T21:49:04.591Z,46.52
2022-09-06T21:51:32.773Z,46.37
2022-09-06T21:54:05.683Z,46.85
2022-09-06T21:56:36.050Z,46.46
2022-09-06T21:59:04.986Z,46.80
2022-09-06T22:01:34.213Z,46.80
2022-09-06T22:04:02.516Z,46.52
2022-09-06T22:06:33.525Z,46.49
2022-09-06T22:09:03.529Z,46.73
2022-09-06T22:11:33.124Z,46.55
2022-09-06T22:14:02.915Z,46.57
2022-09-06T22:16:33.133Z,46.93
2022-09-06T22:19:00.973Z,47.24
2022-09-06T22:21:28.249Z,47.75
2022-09-06T22:23:58.221Z,47.73
2022-09-06T22:26:27.356Z,47.99
2022-09-06T22:28:58.368Z,48.32
2022-09-06T22:31:27.576Z,48.09
2022-09-06T22:33:56.281Z,47.80
2022-09-06T22:36:24.326Z,47.52
2022-09-06T22:38:56.526Z,48.06
2022-09-06T22:41:25.627Z,47.85
2022-09-06T22:43:53.105Z,48.19
2022-09-06T22:46:21.032Z,48.12
2022-09-06T22:48:49.483Z,48.14
2022-09-06T22:51:17.267Z,48.38
2022-09-06T22:53:45.308Z,48.56
2022-09-06T22:56:12.942Z,49.02
2022-09-06T22:58:40.304Z,49.00
2022-09-06T23:01:13.342Z,49.36
2022-09-06T23:03:42.028Z,49.09
2022-09-06T23:06:10.141Z,48.83
2022-09-06T23:08:39.127Z,49.06
2022-09-06T23:11:18.043Z,49.38
2022-09-06T23:13:47.469Z,49.73
2022-09-06T23:16:17.929Z,49.53
2022-09-06T23:18:46.335Z,49.62
2022-09-06T23:21:16.545Z,49.61
2022-09-06T23:23:44.459Z,49.46
2022-09-06T23:26:15.771Z,49.80
2022-09-06T23:28:43.805Z,49.67
2022-09-06T23:31:13.360Z,49.53
2022-09-06T23:33:41.938Z,49.66
2022-09-06T23:36:12.261Z,49.73
2022-09-06T23:38:41.584Z,49.78
2022-09-06T23:41:10.442Z,49.69
2022-09-06T23:43:38.922Z,49.99
2022-09-06T23:46:07.310Z,50.14
2022-09-06T23:48:35.388Z,50.14
2022-09-06T23:51:03.038Z,50.01
2022-09-06T23:53:30.395Z,49.87
2022-09-06T23:55:58.382Z,49.87
2022-09-06T23:58:25.967Z,50.16
